| time (UTC) | temp C | wind direction | speed KPH | gust KPH | rain 1hr cm | rain 24hr cm | rain mn cm | humidity % | barometer mb |
| 20260504011539 | 16 | 333 | 0.0 | 1.6 | 0.00 | 0.00 | 0.00 | 59 | 1017.2 |
| 20260504010050 | 16 | 331 | 0.0 | 1.6 | 0.00 | 0.00 | 0.00 | 56 | 1017.0 |
| 20260504004543 | 17 | 331 | 0.0 | 1.6 | 0.00 | 0.00 | 0.00 | 55 | 1016.8 |
| 20260504003036 | 17 | 331 | 0.0 | 1.6 | 0.00 | 0.00 | 0.00 | 54 | 1016.8 |
| 20260504001539 | 18 | 331 | 0.0 | 0.0 | 0.00 | 0.00 | 0.00 | 52 | 1016.8 |
| 20260504000034 | 19 | 340 | 0.0 | 1.6 | 0.00 | 0.00 | 0.00 | 48 | 1016.6 |
| 20260503234536 | 20 | 340 | 0.0 | 1.6 | 0.00 | 0.00 | 0.00 | 47 | 1016.6 |
| 20260503233033 | 20 | 340 | 0.0 | 3.2 | 0.00 | 0.00 | 0.00 | 45 | 1016.5 |
| 20260503231533 | 21 | 92 | 0.0 | 1.6 | 0.00 | 0.00 | 0.00 | 44 | 1016.5 |
| 20260503230036 | 21 | 319 | 0.0 | 3.2 | 0.00 | 0.00 | 0.00 | 42 | 1016.6 |
| 20260503224529 | 21 | 138 | 0.0 | 6.4 | 0.00 | 0.00 | 0.00 | 41 | 1016.7 |
| 20260503223028 | 21 | 316 | 1.6 | 12.9 | 0.00 | 0.00 | 0.00 | 40 | 1016.8 |
| 20260503221532 | 21 | 311 | 0.0 | 6.4 | 0.00 | 0.00 | 0.00 | 38 | 1016.7 |
| 20260503220033 | 21 | 343 | 0.0 | 8.0 | 0.00 | 0.00 | 0.00 | 36 | 1016.7 |
| 20260503214533 | 21 | 240 | 0.0 | 4.8 | 0.00 | 0.00 | 0.00 | 38 | 1016.7 |
| 20260503213031 | 21 | 291 | 1.6 | 6.4 | 0.00 | 0.00 | 0.00 | 38 | 1016.9 |
| 20260503211522 | 21 | 173 | 1.6 | 4.8 | 0.00 | 0.00 | 0.00 | 37 | 1016.8 |
| 20260503210021 | 21 | 263 | 1.6 | 9.7 | 0.00 | 0.00 | 0.00 | 36 | 1016.9 |
| 20260503204526 | 21 | 336 | 3.2 | 12.9 | 0.00 | 0.00 | 0.00 | 37 | 1016.9 |
| 20260503203019 | 21 | 290 | 1.6 | 8.0 | 0.00 | 0.00 | 0.00 | 36 | 1017.0 |
| 20260503201519 | 21 | 205 | 1.6 | 4.8 | 0.00 | 0.00 | 0.00 | 36 | 1017.2 |
| 20260503200018 | 22 | 9 | 3.2 | 8.0 | 0.00 | 0.03 | 0.00 | 37 | 1017.3 |
| 20260503194520 | 22 | 157 | 4.8 | 9.7 | 0.00 | 0.03 | 0.00 | 34 | 1017.5 |
| 20260503193018 | 23 | 271 | 0.0 | 4.8 | 0.00 | 0.03 | 0.00 | 36 | 1017.8 |
| 20260503191517 | 23 | 174 | 1.6 | 8.0 | 0.00 | 0.03 | 0.00 | 35 | 1018.3 |
| 20260503190026 | 23 | 256 | 1.6 | 9.7 | 0.00 | 0.03 | 0.00 | 36 | 1018.4 |
| 20260503184515 | 23 | 136 | 1.6 | 9.7 | 0.00 | 0.03 | 0.00 | 35 | 1018.8 |
| 20260503183014 | 23 | 158 | 1.6 | 14.5 | 0.00 | 0.03 | 0.00 | 33 | 1019.0 |
| 20260503181531 | 23 | 163 | 8.0 | 19.3 | 0.00 | 0.03 | 0.00 | 35 | 1019.2 |
| 20260503180024 | 23 | 225 | 1.6 | 9.7 | 0.00 | 0.03 | 0.00 | 37 | 1019.5 |
| 20260503174510 | 23 | 218 | 1.6 | 6.4 | 0.00 | 0.03 | 0.00 | 41 | 1019.4 |
| 20260503173010 | 22 | 290 | 1.6 | 16.1 | 0.00 | 0.03 | 0.00 | 38 | 1019.5 |
| 20260503171520 | 23 | 123 | 3.2 | 11.3 | 0.00 | 0.03 | 0.00 | 37 | 1019.5 |
| 20260503120110 | 9 | 23 | 0.0 | 1.6 | 0.00 | 0.58 | 0.00 | 92 | 1019.7 |
| 20260503081527 | 8 | 266 | 0.0 | 0.0 | 0.00 | 1.14 | 0.00 | 90 | 1016.9 |
| 20260503071520 | 8 | 266 | 0.0 | 0.0 | 0.00 | 1.35 | 0.00 | 90 | 1016.9 |
| 20260503054515 | 10 | 266 | 0.0 | 0.0 | 0.00 | 1.45 | 0.00 | 90 | 1016.5 |
| 20260503053016 | 10 | 266 | 0.0 | 0.0 | 0.00 | 1.45 | 0.00 | 90 | 1016.5 |
| 20260503051508 | 10 | 266 | 0.0 | 0.0 | 0.00 | 1.45 | 0.00 | 90 | 1016.5 |
| 20260503050008 | 10 | 266 | 0.0 | 0.0 | 0.00 | 1.45 | 0.00 | 90 | 1016.4 |
| 20260503044506 | 11 | 266 | 0.0 | 0.0 | 0.00 | 1.45 | 0.00 | 90 | 1016.4 |
| 20260503043003 | 11 | 266 | 0.0 | 1.6 | 0.00 | 1.45 | 0.00 | 90 | 1016.2 |
| 20260503041613 | 11 | 266 | 0.0 | 3.2 | 0.00 | 1.45 | 0.00 | 90 | 1016.0 |
| 20260503040057 | 11 | 237 | 0.0 | 0.0 | 0.00 | 1.45 | 0.00 | 91 | 1016.0 |
| 20260503034557 | 11 | 237 | 0.0 | 1.6 | 0.00 | 1.45 | 1.45 | 91 | 1015.8 |
| 20260503033115 | 11 | 237 | 0.0 | 1.6 | 0.00 | 1.45 | 1.45 | 91 | 1016.0 |
| 20260503031555 | 11 | 237 | 0.0 | 1.6 | 0.00 | 1.45 | 1.45 | 90 | 1016.3 |
| 20260503030100 | 11 | 237 | 0.0 | 1.6 | 0.00 | 1.45 | 1.45 | 90 | 1016.2 |
| 20260503024600 | 11 | 11 | 0.0 | 3.2 | 0.00 | 1.45 | 1.45 | 90 | 1016.0 |
| 20260503023053 | 11 | 336 | 0.0 | 0.0 | 0.00 | 1.45 | 1.45 | 90 | 1015.5 |
| 20260503021551 | 11 | 321 | 0.0 | 0.0 | 0.00 | 1.45 | 1.45 | 89 | 1015.1 |
| 20260503020053 | 11 | 85 | 0.0 | 0.0 | 0.00 | 1.45 | 1.45 | 89 | 1014.6 |
| 20260503014549 | 12 | 84 | 0.0 | 0.0 | 0.00 | 1.45 | 1.45 | 88 | 1014.4 |
| 20260503013041 | 12 | 84 | 0.0 | 0.0 | 0.00 | 1.45 | 1.45 | 88 | 1014.3 |